sensor_id;sensor_type;location;lat;lon;timestamp;temperature;humidity
28524;DHT22;15734;50.904;6.922;2022-12-18T00:00:27;-4.30;99.90
28524;DHT22;15734;50.904;6.922;2022-12-18T00:02:53;-4.20;99.90
28524;DHT22;15734;50.904;6.922;2022-12-18T00:05:18;-4.30;99.90
28524;DHT22;15734;50.904;6.922;2022-12-18T00:07:44;-4.20;99.90
28524;DHT22;15734;50.904;6.922;2022-12-18T00:10:09;-4.20;99.90
28524;DHT22;15734;50.904;6.922;2022-12-18T00:12:35;-4.10;99.90
28524;DHT22;15734;50.904;6.922;2022-12-18T00:15:00;-4.20;99.90
28524;DHT22;15734;50.904;6.922;2022-12-18T00:17:26;-4.10;99.90
28524;DHT22;15734;50.904;6.922;2022-12-18T00:19:51;-4.20;99.90
28524;DHT22;15734;50.904;6.922;2022-12-18T00:22:16;-4.20;99.90
28524;DHT22;15734;50.904;6.922;2022-12-18T00:24:42;-4.10;99.90
28524;DHT22;15734;50.904;6.922;2022-12-18T00:27:07;-4.20;99.90
28524;DHT22;15734;50.904;6.922;2022-12-18T00:29:33;-4.20;99.90
28524;DHT22;15734;50.904;6.922;2022-12-18T00:31:59;-4.20;99.90
28524;DHT22;15734;50.904;6.922;2022-12-18T00:34:24;-4.30;99.90
28524;DHT22;15734;50.904;6.922;2022-12-18T00:36:49;-4.30;99.90
28524;DHT22;15734;50.904;6.922;2022-12-18T00:39:15;-4.20;99.90
28524;DHT22;15734;50.904;6.922;2022-12-18T00:41:40;-4.20;99.90
28524;DHT22;15734;50.904;6.922;2022-12-18T00:44:24;-4.20;99.90
28524;DHT22;15734;50.904;6.922;2022-12-18T00:46:50;-4.20;99.90
28524;DHT22;15734;50.904;6.922;2022-12-18T00:49:16;-4.20;99.90
28524;DHT22;15734;50.904;6.922;2022-12-18T00:51:43;-4.20;99.90
28524;DHT22;15734;50.904;6.922;2022-12-18T00:54:08;-4.30;99.90
28524;DHT22;15734;50.904;6.922;2022-12-18T00:56:37;-4.30;99.90
28524;DHT22;15734;50.904;6.922;2022-12-18T00:59:03;-4.40;99.90
28524;DHT22;15734;50.904;6.922;2022-12-18T01:01:29;-4.40;99.90
28524;DHT22;15734;50.904;6.922;2022-12-18T01:03:54;-4.40;99.90
28524;DHT22;15734;50.904;6.922;2022-12-18T01:06:20;-4.40;99.90
28524;DHT22;15734;50.904;6.922;2022-12-18T01:08:45;-4.40;99.90
28524;DHT22;15734;50.904;6.922;2022-12-18T01:11:11;-4.40;99.90
28524;DHT22;15734;50.904;6.922;2022-12-18T01:13:37;-4.40;99.90
28524;DHT22;15734;50.904;6.922;2022-12-18T01:16:03;-4.40;99.90
28524;DHT22;15734;50.904;6.922;2022-12-18T01:18:29;-4.40;99.90
28524;DHT22;15734;50.904;6.922;2022-12-18T01:20:54;-4.50;99.90
28524;DHT22;15734;50.904;6.922;2022-12-18T01:23:19;-4.60;99.90
28524;DHT22;15734;50.904;6.922;2022-12-18T01:25:45;-4.60;99.90
28524;DHT22;15734;50.904;6.922;2022-12-18T01:28:10;-4.50;99.90
28524;DHT22;15734;50.904;6.922;2022-12-18T01:30:36;-4.60;99.90
28524;DHT22;15734;50.904;6.922;2022-12-18T01:33:03;-4.50;99.90
28524;DHT22;15734;50.904;6.922;2022-12-18T01:35:29;-4.50;99.90
28524;DHT22;15734;50.904;6.922;2022-12-18T01:37:55;-4.50;99.90
28524;DHT22;15734;50.904;6.922;2022-12-18T01:40:20;-4.50;99.90
28524;DHT22;15734;50.904;6.922;2022-12-18T01:42:50;-4.50;99.90
28524;DHT22;15734;50.904;6.922;2022-12-18T01:50:13;-4.40;99.90
28524;DHT22;15734;50.904;6.922;2022-12-18T01:52:43;-4.40;99.90
28524;DHT22;15734;50.904;6.922;2022-12-18T01:55:10;-4.50;99.90
28524;DHT22;15734;50.904;6.922;2022-12-18T01:57:36;-4.50;99.90
28524;DHT22;15734;50.904;6.922;2022-12-18T02:00:06;-4.50;99.90
28524;DHT22;15734;50.904;6.922;2022-12-18T02:02:32;-4.60;99.90
28524;DHT22;15734;50.904;6.922;2022-12-18T02:04:58;-4.60;99.90
28524;DHT22;15734;50.904;6.922;2022-12-18T02:12:48;-4.50;99.90
28524;DHT22;15734;50.904;6.922;2022-12-18T02:20:17;-4.50;99.90
28524;DHT22;15734;50.904;6.922;2022-12-18T02:23:00;-4.50;99.90
28524;DHT22;15734;50.904;6.922;2022-12-18T02:27:58;-4.50;99.90
28524;DHT22;15734;50.904;6.922;2022-12-18T02:30:25;-4.60;99.90
28524;DHT22;15734;50.904;6.922;2022-12-18T02:32:52;-4.50;99.90
28524;DHT22;15734;50.904;6.922;2022-12-18T02:35:24;-4.60;99.90
28524;DHT22;15734;50.904;6.922;2022-12-18T02:37:51;-4.60;99.90
28524;DHT22;15734;50.904;6.922;2022-12-18T02:40:17;-4.60;99.90
28524;DHT22;15734;50.904;6.922;2022-12-18T02:42:44;-4.60;99.90
28524;DHT22;15734;50.904;6.922;2022-12-18T02:45:09;-4.60;99.90
28524;DHT22;15734;50.904;6.922;2022-12-18T02:47:38;-4.60;99.90
28524;DHT22;15734;50.904;6.922;2022-12-18T02:55:18;-4.60;99.90
28524;DHT22;15734;50.904;6.922;2022-12-18T02:57:46;-4.60;99.90
28524;DHT22;15734;50.904;6.922;2022-12-18T03:00:15;-4.60;99.90
28524;DHT22;15734;50.904;6.922;2022-12-18T03:07:39;-4.50;99.90
28524;DHT22;15734;50.904;6.922;2022-12-18T03:10:06;-4.50;99.90
28524;DHT22;15734;50.904;6.922;2022-12-18T03:12:37;-4.50;99.90
28524;DHT22;15734;50.904;6.922;2022-12-18T03:15:09;-4.50;99.90
28524;DHT22;15734;50.904;6.922;2022-12-18T03:17:35;-4.50;99.90
28524;DHT22;15734;50.904;6.922;2022-12-18T03:20:04;-4.50;99.90
28524;DHT22;15734;50.904;6.922;2022-12-18T03:22:31;-4.60;99.90
28524;DHT22;15734;50.904;6.922;2022-12-18T03:24:57;-4.60;99.90
28524;DHT22;15734;50.904;6.922;2022-12-18T03:27:25;-4.50;99.90
28524;DHT22;15734;50.904;6.922;2022-12-18T03:29:52;-4.60;99.90
28524;DHT22;15734;50.904;6.922;2022-12-18T03:32:30;-4.60;99.90
28524;DHT22;15734;50.904;6.922;2022-12-18T03:34:57;-4.60;99.90
28524;DHT22;15734;50.904;6.922;2022-12-18T03:37:23;-4.60;99.90
28524;DHT22;15734;50.904;6.922;2022-12-18T03:39:49;-4.60;99.90
28524;DHT22;15734;50.904;6.922;2022-12-18T03:42:23;-4.70;99.90
28524;DHT22;15734;50.904;6.922;2022-12-18T03:44:54;-4.70;99.90
28524;DHT22;15734;50.904;6.922;2022-12-18T03:47:25;-4.70;99.90
28524;DHT22;15734;50.904;6.922;2022-12-18T03:52:36;-4.70;99.90
28524;DHT22;15734;50.904;6.922;2022-12-18T03:55:02;-4.70;99.90
28524;DHT22;15734;50.904;6.922;2022-12-18T03:57:29;-4.60;99.90
28524;DHT22;15734;50.904;6.922;2022-12-18T03:59:56;-4.70;99.90
28524;DHT22;15734;50.904;6.922;2022-12-18T04:02:22;-4.60;99.90
28524;DHT22;15734;50.904;6.922;2022-12-18T04:04:49;-4.70;99.90
28524;DHT22;15734;50.904;6.922;2022-12-18T04:07:15;-4.70;99.90
28524;DHT22;15734;50.904;6.922;2022-12-18T04:09:41;-4.60;99.90
28524;DHT22;15734;50.904;6.922;2022-12-18T04:12:08;-4.60;99.90
28524;DHT22;15734;50.904;6.922;2022-12-18T04:14:33;-4.70;99.90
28524;DHT22;15734;50.904;6.922;2022-12-18T04:17:01;-4.80;99.90
28524;DHT22;15734;50.904;6.922;2022-12-18T04:19:26;-4.80;99.90
28524;DHT22;15734;50.904;6.922;2022-12-18T04:21:52;-4.80;99.90
28524;DHT22;15734;50.904;6.922;2022-12-18T04:24:17;-4.80;99.90
28524;DHT22;15734;50.904;6.922;2022-12-18T04:26:43;-4.90;99.90
28524;DHT22;15734;50.904;6.922;2022-12-18T04:29:08;-4.90;99.90
28524;DHT22;15734;50.904;6.922;2022-12-18T04:31:33;-4.90;99.90
28524;DHT22;15734;50.904;6.922;2022-12-18T04:33:59;-4.90;99.90
28524;DHT22;15734;50.904;6.922;2022-12-18T04:36:24;-4.90;99.90
28524;DHT22;15734;50.904;6.922;2022-12-18T04:38:50;-4.90;99.90
28524;DHT22;15734;50.904;6.922;2022-12-18T04:41:15;-5.00;99.90
28524;DHT22;15734;50.904;6.922;2022-12-18T04:43:41;-4.90;99.90
28524;DHT22;15734;50.904;6.922;2022-12-18T04:46:07;-4.90;99.90
28524;DHT22;15734;50.904;6.922;2022-12-18T04:48:33;-4.90;99.90
28524;DHT22;15734;50.904;6.922;2022-12-18T04:50:58;-4.90;99.90
28524;DHT22;15734;50.904;6.922;2022-12-18T04:53:24;-4.90;99.90
28524;DHT22;15734;50.904;6.922;2022-12-18T04:55:49;-5.00;99.90
28524;DHT22;15734;50.904;6.922;2022-12-18T04:58:15;-4.90;99.90
28524;DHT22;15734;50.904;6.922;2022-12-18T05:00:40;-4.90;99.90
28524;DHT22;15734;50.904;6.922;2022-12-18T05:03:06;-5.00;99.90
28524;DHT22;15734;50.904;6.922;2022-12-18T05:05:31;-5.00;99.90
28524;DHT22;15734;50.904;6.922;2022-12-18T05:07:56;-5.00;99.90
28524;DHT22;15734;50.904;6.922;2022-12-18T05:10:22;-5.00;99.90
28524;DHT22;15734;50.904;6.922;2022-12-18T05:12:47;-5.00;99.90
28524;DHT22;15734;50.904;6.922;2022-12-18T05:15:32;-5.10;99.90
28524;DHT22;15734;50.904;6.922;2022-12-18T05:17:57;-5.10;99.90
28524;DHT22;15734;50.904;6.922;2022-12-18T05:20:23;-5.10;99.90
28524;DHT22;15734;50.904;6.922;2022-12-18T05:22:49;-5.10;99.90
28524;DHT22;15734;50.904;6.922;2022-12-18T05:25:14;-5.00;99.90
28524;DHT22;15734;50.904;6.922;2022-12-18T05:27:40;-5.10;99.90
28524;DHT22;15734;50.904;6.922;2022-12-18T05:30:05;-5.10;99.90
28524;DHT22;15734;50.904;6.922;2022-12-18T05:32:31;-5.10;99.90
28524;DHT22;15734;50.904;6.922;2022-12-18T05:34:57;-5.10;99.90
28524;DHT22;15734;50.904;6.922;2022-12-18T05:37:22;-5.10;99.90
28524;DHT22;15734;50.904;6.922;2022-12-18T05:39:47;-5.10;99.90
28524;DHT22;15734;50.904;6.922;2022-12-18T05:42:13;-5.10;99.90
28524;DHT22;15734;50.904;6.922;2022-12-18T05:44:38;-5.10;99.90
28524;DHT22;15734;50.904;6.922;2022-12-18T05:47:04;-5.10;99.90
28524;DHT22;15734;50.904;6.922;2022-12-18T05:49:29;-5.10;99.90
28524;DHT22;15734;50.904;6.922;2022-12-18T05:51:55;-5.00;99.90
28524;DHT22;15734;50.904;6.922;2022-12-18T05:54:21;-5.00;99.90
28524;DHT22;15734;50.904;6.922;2022-12-18T05:56:47;-5.00;99.90
28524;DHT22;15734;50.904;6.922;2022-12-18T05:59:12;-5.10;99.90
28524;DHT22;15734;50.904;6.922;2022-12-18T06:01:38;-5.00;99.90
28524;DHT22;15734;50.904;6.922;2022-12-18T06:04:03;-5.00;99.90
28524;DHT22;15734;50.904;6.922;2022-12-18T06:06:28;-5.00;99.90
28524;DHT22;15734;50.904;6.922;2022-12-18T06:08:54;-5.10;99.90
28524;DHT22;15734;50.904;6.922;2022-12-18T06:11:25;-5.00;99.90
28524;DHT22;15734;50.904;6.922;2022-12-18T06:13:54;-5.00;99.90
28524;DHT22;15734;50.904;6.922;2022-12-18T06:16:19;-5.00;99.90
28524;DHT22;15734;50.904;6.922;2022-12-18T06:18:45;-5.00;99.90
28524;DHT22;15734;50.904;6.922;2022-12-18T06:21:11;-4.90;99.90
28524;DHT22;15734;50.904;6.922;2022-12-18T06:23:36;-4.80;99.90
28524;DHT22;15734;50.904;6.922;2022-12-18T06:26:05;-4.90;99.90
28524;DHT22;15734;50.904;6.922;2022-12-18T06:28:31;-4.90;99.90
28524;DHT22;15734;50.904;6.922;2022-12-18T06:30:56;-4.90;99.90
28524;DHT22;15734;50.904;6.922;2022-12-18T06:33:22;-4.90;99.90
28524;DHT22;15734;50.904;6.922;2022-12-18T06:35:50;-4.90;99.90
28524;DHT22;15734;50.904;6.922;2022-12-18T06:38:16;-4.90;99.90
28524;DHT22;15734;50.904;6.922;2022-12-18T06:40:41;-4.80;99.90
28524;DHT22;15734;50.904;6.922;2022-12-18T06:43:07;-4.80;99.90
28524;DHT22;15734;50.904;6.922;2022-12-18T06:45:33;-4.80;99.90
28524;DHT22;15734;50.904;6.922;2022-12-18T06:47:58;-4.90;99.90
28524;DHT22;15734;50.904;6.922;2022-12-18T06:50:24;-4.80;99.90
28524;DHT22;15734;50.904;6.922;2022-12-18T06:52:49;-4.80;99.90
28524;DHT22;15734;50.904;6.922;2022-12-18T06:55:15;-4.80;99.90
28524;DHT22;15734;50.904;6.922;2022-12-18T07:00:08;-5.00;99.90
28524;DHT22;15734;50.904;6.922;2022-12-18T07:02:33;-5.00;99.90
28524;DHT22;15734;50.904;6.922;2022-12-18T07:04:59;-4.90;99.90
28524;DHT22;15734;50.904;6.922;2022-12-18T07:07:25;-5.00;99.90
28524;DHT22;15734;50.904;6.922;2022-12-18T07:09:50;-4.90;99.90
28524;DHT22;15734;50.904;6.922;2022-12-18T07:12:16;-4.90;99.90
28524;DHT22;15734;50.904;6.922;2022-12-18T07:14:41;-4.90;99.90
28524;DHT22;15734;50.904;6.922;2022-12-18T07:17:07;-4.90;99.90
28524;DHT22;15734;50.904;6.922;2022-12-18T07:19:33;-4.90;99.90
28524;DHT22;15734;50.904;6.922;2022-12-18T07:21:58;-4.90;99.90
28524;DHT22;15734;50.904;6.922;2022-12-18T07:24:24;-4.80;99.90
28524;DHT22;15734;50.904;6.922;2022-12-18T07:26:49;-4.80;99.90
28524;DHT22;15734;50.904;6.922;2022-12-18T07:29:15;-4.80;99.90
28524;DHT22;15734;50.904;6.922;2022-12-18T07:31:40;-4.70;99.90
28524;DHT22;15734;50.904;6.922;2022-12-18T07:34:09;-4.70;99.90
28524;DHT22;15734;50.904;6.922;2022-12-18T07:36:35;-4.60;99.90
28524;DHT22;15734;50.904;6.922;2022-12-18T07:39:00;-4.60;99.90
28524;DHT22;15734;50.904;6.922;2022-12-18T07:41:26;-4.60;99.90
28524;DHT22;15734;50.904;6.922;2022-12-18T07:43:51;-4.60;99.90
28524;DHT22;15734;50.904;6.922;2022-12-18T07:46:17;-4.60;99.90
28524;DHT22;15734;50.904;6.922;2022-12-18T07:48:42;-4.60;99.90
28524;DHT22;15734;50.904;6.922;2022-12-18T07:51:08;-4.70;99.90
28524;DHT22;15734;50.904;6.922;2022-12-18T07:53:34;-4.60;99.90
28524;DHT22;15734;50.904;6.922;2022-12-18T07:56:02;-4.60;99.90
28524;DHT22;15734;50.904;6.922;2022-12-18T07:58:28;-4.60;99.90
28524;DHT22;15734;50.904;6.922;2022-12-18T08:00:54;-4.60;99.90
28524;DHT22;15734;50.904;6.922;2022-12-18T08:03:19;-4.50;99.90
28524;DHT22;15734;50.904;6.922;2022-12-18T08:05:44;-4.50;99.90
28524;DHT22;15734;50.904;6.922;2022-12-18T08:08:10;-4.40;99.90
28524;DHT22;15734;50.904;6.922;2022-12-18T08:10:35;-4.50;99.90
28524;DHT22;15734;50.904;6.922;2022-12-18T08:13:01;-4.50;99.90
28524;DHT22;15734;50.904;6.922;2022-12-18T08:15:26;-4.40;99.90
28524;DHT22;15734;50.904;6.922;2022-12-18T08:17:52;-4.40;99.90
28524;DHT22;15734;50.904;6.922;2022-12-18T08:20:17;-4.30;99.90
28524;DHT22;15734;50.904;6.922;2022-12-18T08:22:43;-4.30;99.90
28524;DHT22;15734;50.904;6.922;2022-12-18T08:25:09;-4.30;99.90
28524;DHT22;15734;50.904;6.922;2022-12-18T08:27:35;-4.30;99.90
28524;DHT22;15734;50.904;6.922;2022-12-18T08:30:00;-4.20;99.90
28524;DHT22;15734;50.904;6.922;2022-12-18T08:32:26;-4.20;99.90
28524;DHT22;15734;50.904;6.922;2022-12-18T08:34:52;-4.20;99.90
28524;DHT22;15734;50.904;6.922;2022-12-18T08:37:17;-4.10;99.90
28524;DHT22;15734;50.904;6.922;2022-12-18T08:39:43;-4.10;99.90
28524;DHT22;15734;50.904;6.922;2022-12-18T08:42:08;-4.00;99.90
28524;DHT22;15734;50.904;6.922;2022-12-18T08:44:52;-4.00;99.90
28524;DHT22;15734;50.904;6.922;2022-12-18T08:47:18;-4.00;99.90
28524;DHT22;15734;50.904;6.922;2022-12-18T08:49:43;-4.00;99.90
28524;DHT22;15734;50.904;6.922;2022-12-18T08:52:08;-4.00;99.90
28524;DHT22;15734;50.904;6.922;2022-12-18T08:54:34;-3.90;99.90
28524;DHT22;15734;50.904;6.922;2022-12-18T08:56:59;-3.80;99.90
28524;DHT22;15734;50.904;6.922;2022-12-18T08:59:25;-3.70;99.90
28524;DHT22;15734;50.904;6.922;2022-12-18T09:01:53;-3.70;99.90
28524;DHT22;15734;50.904;6.922;2022-12-18T09:04:18;-3.60;99.90
28524;DHT22;15734;50.904;6.922;2022-12-18T09:06:43;-3.50;99.90
28524;DHT22;15734;50.904;6.922;2022-12-18T09:09:09;-3.50;99.90
28524;DHT22;15734;50.904;6.922;2022-12-18T09:11:34;-3.50;99.90
28524;DHT22;15734;50.904;6.922;2022-12-18T09:14:00;-3.40;99.90
28524;DHT22;15734;50.904;6.922;2022-12-18T09:16:26;-3.30;99.90
28524;DHT22;15734;50.904;6.922;2022-12-18T09:18:54;-3.30;99.90
28524;DHT22;15734;50.904;6.922;2022-12-18T09:21:24;-3.30;99.90
28524;DHT22;15734;50.904;6.922;2022-12-18T09:23:50;-3.20;99.90
28524;DHT22;15734;50.904;6.922;2022-12-18T09:26:16;-3.10;99.90
28524;DHT22;15734;50.904;6.922;2022-12-18T09:28:42;-3.10;99.90
28524;DHT22;15734;50.904;6.922;2022-12-18T09:31:07;-3.00;99.90
28524;DHT22;15734;50.904;6.922;2022-12-18T09:33:36;-3.00;99.90
28524;DHT22;15734;50.904;6.922;2022-12-18T09:36:05;-2.90;99.90
28524;DHT22;15734;50.904;6.922;2022-12-18T09:38:32;-2.80;99.90
28524;DHT22;15734;50.904;6.922;2022-12-18T09:40:59;-2.60;99.90
28524;DHT22;15734;50.904;6.922;2022-12-18T09:43:41;-2.60;99.90
28524;DHT22;15734;50.904;6.922;2022-12-18T09:46:09;-2.60;99.90
28524;DHT22;15734;50.904;6.922;2022-12-18T09:48:37;-2.50;99.90
28524;DHT22;15734;50.904;6.922;2022-12-18T09:51:10;-2.40;99.90
28524;DHT22;15734;50.904;6.922;2022-12-18T09:53:38;-2.40;99.90
28524;DHT22;15734;50.904;6.922;2022-12-18T09:56:05;-2.30;99.90
28524;DHT22;15734;50.904;6.922;2022-12-18T10:01:00;-2.20;99.90
28524;DHT22;15734;50.904;6.922;2022-12-18T10:03:25;-2.10;99.90
28524;DHT22;15734;50.904;6.922;2022-12-18T10:08:39;-2.00;99.90
28524;DHT22;15734;50.904;6.922;2022-12-18T10:11:14;-2.00;99.90
28524;DHT22;15734;50.904;6.922;2022-12-18T10:13:46;-1.90;99.90
28524;DHT22;15734;50.904;6.922;2022-12-18T10:22:02;-1.60;99.90
28524;DHT22;15734;50.904;6.922;2022-12-18T10:26:41;-1.60;99.90
28524;DHT22;15734;50.904;6.922;2022-12-18T10:29:13;-1.40;99.90
28524;DHT22;15734;50.904;6.922;2022-12-18T10:31:39;-1.50;99.90
28524;DHT22;15734;50.904;6.922;2022-12-18T10:34:08;-1.40;99.90
28524;DHT22;15734;50.904;6.922;2022-12-18T10:36:34;-1.30;99.90
28524;DHT22;15734;50.904;6.922;2022-12-18T10:39:19;-1.20;99.90
28524;DHT22;15734;50.904;6.922;2022-12-18T10:41:45;-1.20;99.90
28524;DHT22;15734;50.904;6.922;2022-12-18T10:44:16;-1.10;99.90
28524;DHT22;15734;50.904;6.922;2022-12-18T10:46:42;-1.00;99.90
28524;DHT22;15734;50.904;6.922;2022-12-18T10:49:18;-1.00;99.90
28524;DHT22;15734;50.904;6.922;2022-12-18T10:51:43;-1.00;99.90
28524;DHT22;15734;50.904;6.922;2022-12-18T10:54:14;-0.90;99.90
28524;DHT22;15734;50.904;6.922;2022-12-18T10:56:40;-0.80;99.90
28524;DHT22;15734;50.904;6.922;2022-12-18T10:59:07;-0.70;99.90
28524;DHT22;15734;50.904;6.922;2022-12-18T11:01:46;-0.70;99.90
28524;DHT22;15734;50.904;6.922;2022-12-18T11:04:13;-0.70;99.90
28524;DHT22;15734;50.904;6.922;2022-12-18T11:06:54;-0.70;99.90
28524;DHT22;15734;50.904;6.922;2022-12-18T11:09:22;-0.60;99.90
28524;DHT22;15734;50.904;6.922;2022-12-18T11:11:51;-0.70;99.90
28524;DHT22;15734;50.904;6.922;2022-12-18T11:14:21;-0.60;99.90
28524;DHT22;15734;50.904;6.922;2022-12-18T11:16:47;-0.50;99.90
28524;DHT22;15734;50.904;6.922;2022-12-18T11:19:21;-0.40;99.90
28524;DHT22;15734;50.904;6.922;2022-12-18T11:21:47;-0.50;99.90
28524;DHT22;15734;50.904;6.922;2022-12-18T11:24:17;-0.50;99.90
28524;DHT22;15734;50.904;6.922;2022-12-18T11:26:44;-0.40;99.90
28524;DHT22;15734;50.904;6.922;2022-12-18T11:29:14;-0.40;99.90
28524;DHT22;15734;50.904;6.922;2022-12-18T11:31:40;-0.40;99.90
28524;DHT22;15734;50.904;6.922;2022-12-18T11:34:09;-0.40;99.90
28524;DHT22;15734;50.904;6.922;2022-12-18T11:36:38;-0.40;99.90
28524;DHT22;15734;50.904;6.922;2022-12-18T11:39:10;-0.30;99.90
28524;DHT22;15734;50.904;6.922;2022-12-18T11:41:47;-0.30;99.90
28524;DHT22;15734;50.904;6.922;2022-12-18T11:44:52;-0.40;99.90
28524;DHT22;15734;50.904;6.922;2022-12-18T11:47:39;-0.30;99.90
28524;DHT22;15734;50.904;6.922;2022-12-18T11:50:52;-0.20;99.90
28524;DHT22;15734;50.904;6.922;2022-12-18T11:52:51;-0.10;99.90
28524;DHT22;15734;50.904;6.922;2022-12-18T11:57:51;-0.10;99.90
28524;DHT22;15734;50.904;6.922;2022-12-18T12:00:20;-0.10;99.90
28524;DHT22;15734;50.904;6.922;2022-12-18T12:15:59;-0.20;99.90
28524;DHT22;15734;50.904;6.922;2022-12-18T12:23:41;-0.20;99.90
28524;DHT22;15734;50.904;6.922;2022-12-18T12:33:51;-0.20;99.90
28524;DHT22;15734;50.904;6.922;2022-12-18T12:38:49;-0.20;99.90
28524;DHT22;15734;50.904;6.922;2022-12-18T12:41:19;-0.10;99.90
28524;DHT22;15734;50.904;6.922;2022-12-18T12:44:05;-0.10;99.90
28524;DHT22;15734;50.904;6.922;2022-12-18T12:46:32;-0.10;99.90
28524;DHT22;15734;50.904;6.922;2022-12-18T12:49:00;-0.10;99.90
28524;DHT22;15734;50.904;6.922;2022-12-18T12:51:31;-0.10;99.90
28524;DHT22;15734;50.904;6.922;2022-12-18T12:53:57;-0.20;99.90
28524;DHT22;15734;50.904;6.922;2022-12-18T12:56:24;-0.20;99.90
28524;DHT22;15734;50.904;6.922;2022-12-18T13:01:28;-0.10;99.90
28524;DHT22;15734;50.904;6.922;2022-12-18T13:03:58;-0.10;99.90
28524;DHT22;15734;50.904;6.922;2022-12-18T13:06:29;-0.20;99.90
28524;DHT22;15734;50.904;6.922;2022-12-18T13:08:59;-0.10;99.90
28524;DHT22;15734;50.904;6.922;2022-12-18T13:11:32;-0.10;99.90
28524;DHT22;15734;50.904;6.922;2022-12-18T13:14:22;-0.20;99.90
28524;DHT22;15734;50.904;6.922;2022-12-18T13:16:48;-0.20;99.90
28524;DHT22;15734;50.904;6.922;2022-12-18T13:19:23;-0.20;99.90
28524;DHT22;15734;50.904;6.922;2022-12-18T13:21:54;-0.10;99.90
28524;DHT22;15734;50.904;6.922;2022-12-18T13:24:24;-0.10;99.90
28524;DHT22;15734;50.904;6.922;2022-12-18T13:26:50;-0.10;99.90
28524;DHT22;15734;50.904;6.922;2022-12-18T13:29:58;-0.10;99.90
28524;DHT22;15734;50.904;6.922;2022-12-18T13:32:10;-0.10;99.90
28524;DHT22;15734;50.904;6.922;2022-12-18T13:34:43;-0.20;99.90
28524;DHT22;15734;50.904;6.922;2022-12-18T13:39:53;-0.20;99.90
28524;DHT22;15734;50.904;6.922;2022-12-18T13:45:31;-0.10;99.90
28524;DHT22;15734;50.904;6.922;2022-12-18T13:47:48;-0.10;99.90
28524;DHT22;15734;50.904;6.922;2022-12-18T13:50:20;-0.10;99.90
28524;DHT22;15734;50.904;6.922;2022-12-18T13:52:50;-0.10;99.90
28524;DHT22;15734;50.904;6.922;2022-12-18T13:55:16;-0.10;99.90
28524;DHT22;15734;50.904;6.922;2022-12-18T13:57:43;-0.10;99.90
28524;DHT22;15734;50.904;6.922;2022-12-18T14:02:54;-0.20;99.90
28524;DHT22;15734;50.904;6.922;2022-12-18T14:05:29;-0.30;99.90
28524;DHT22;15734;50.904;6.922;2022-12-18T14:07:55;-0.20;99.90
28524;DHT22;15734;50.904;6.922;2022-12-18T14:10:23;-0.20;99.90
28524;DHT22;15734;50.904;6.922;2022-12-18T14:12:49;-0.30;99.90
28524;DHT22;15734;50.904;6.922;2022-12-18T14:17:50;-0.30;99.90
28524;DHT22;15734;50.904;6.922;2022-12-18T14:20:16;-0.20;99.90
28524;DHT22;15734;50.904;6.922;2022-12-18T14:22:45;-0.30;99.90
28524;DHT22;15734;50.904;6.922;2022-12-18T14:27:37;-0.30;99.90
28524;DHT22;15734;50.904;6.922;2022-12-18T14:30:18;-0.30;99.90
28524;DHT22;15734;50.904;6.922;2022-12-18T14:33:10;-0.40;99.90
28524;DHT22;15734;50.904;6.922;2022-12-18T14:35:38;-0.40;99.90
28524;DHT22;15734;50.904;6.922;2022-12-18T14:38:10;-0.40;99.90
28524;DHT22;15734;50.904;6.922;2022-12-18T14:40:36;-0.40;99.90
28524;DHT22;15734;50.904;6.922;2022-12-18T14:43:02;-0.40;99.90
28524;DHT22;15734;50.904;6.922;2022-12-18T14:45:37;-0.40;99.90
28524;DHT22;15734;50.904;6.922;2022-12-18T14:48:46;-0.40;99.90
28524;DHT22;15734;50.904;6.922;2022-12-18T14:50:54;-0.40;99.90
28524;DHT22;15734;50.904;6.922;2022-12-18T14:53:25;-0.40;99.90
28524;DHT22;15734;50.904;6.922;2022-12-18T14:55:53;-0.40;99.90
28524;DHT22;15734;50.904;6.922;2022-12-18T14:58:19;-0.50;99.90
28524;DHT22;15734;50.904;6.922;2022-12-18T15:00:44;-0.50;99.90
28524;DHT22;15734;50.904;6.922;2022-12-18T15:03:12;-0.50;99.90
28524;DHT22;15734;50.904;6.922;2022-12-18T15:05:41;-0.50;99.90
28524;DHT22;15734;50.904;6.922;2022-12-18T15:08:24;-0.50;99.90
28524;DHT22;15734;50.904;6.922;2022-12-18T15:10:51;-0.40;99.90
28524;DHT22;15734;50.904;6.922;2022-12-18T15:13:23;-0.50;99.90
28524;DHT22;15734;50.904;6.922;2022-12-18T15:15:50;-0.50;99.90
28524;DHT22;15734;50.904;6.922;2022-12-18T15:18:18;-0.40;99.90
28524;DHT22;15734;50.904;6.922;2022-12-18T15:20:46;-0.50;99.90
28524;DHT22;15734;50.904;6.922;2022-12-18T15:23:25;-0.50;99.90
28524;DHT22;15734;50.904;6.922;2022-12-18T15:25:58;-0.50;99.90
28524;DHT22;15734;50.904;6.922;2022-12-18T15:28:36;-0.60;99.90
28524;DHT22;15734;50.904;6.922;2022-12-18T15:33:32;-0.50;99.90
28524;DHT22;15734;50.904;6.922;2022-12-18T15:35:58;-0.60;99.90
28524;DHT22;15734;50.904;6.922;2022-12-18T15:38:24;-0.60;99.90
28524;DHT22;15734;50.904;6.922;2022-12-18T15:40:50;-0.60;99.90
28524;DHT22;15734;50.904;6.922;2022-12-18T15:43:16;-0.50;99.90
28524;DHT22;15734;50.904;6.922;2022-12-18T15:46:10;-0.60;99.90
28524;DHT22;15734;50.904;6.922;2022-12-18T15:48:38;-0.60;99.90
28524;DHT22;15734;50.904;6.922;2022-12-18T15:51:04;-0.60;99.90
28524;DHT22;15734;50.904;6.922;2022-12-18T15:53:31;-0.60;99.90
28524;DHT22;15734;50.904;6.922;2022-12-18T15:55:57;-0.60;99.90
28524;DHT22;15734;50.904;6.922;2022-12-18T15:58:41;-0.60;99.90
28524;DHT22;15734;50.904;6.922;2022-12-18T16:01:07;-0.70;99.90
28524;DHT22;15734;50.904;6.922;2022-12-18T16:03:34;-0.60;99.90
28524;DHT22;15734;50.904;6.922;2022-12-18T16:05:59;-0.70;99.90
28524;DHT22;15734;50.904;6.922;2022-12-18T16:08:28;-0.70;99.90
28524;DHT22;15734;50.904;6.922;2022-12-18T16:10:54;-0.70;99.90
28524;DHT22;15734;50.904;6.922;2022-12-18T16:13:20;-0.70;99.90
28524;DHT22;15734;50.904;6.922;2022-12-18T16:15:45;-0.70;99.90
28524;DHT22;15734;50.904;6.922;2022-12-18T16:18:11;-0.60;99.90
28524;DHT22;15734;50.904;6.922;2022-12-18T16:20:36;-0.70;99.90
28524;DHT22;15734;50.904;6.922;2022-12-18T16:23:03;-0.80;99.90
28524;DHT22;15734;50.904;6.922;2022-12-18T16:25:28;-0.80;99.90
28524;DHT22;15734;50.904;6.922;2022-12-18T16:27:54;-0.80;99.90
28524;DHT22;15734;50.904;6.922;2022-12-18T16:30:29;-0.70;99.90
28524;DHT22;15734;50.904;6.922;2022-12-18T16:32:56;-0.70;99.90
28524;DHT22;15734;50.904;6.922;2022-12-18T16:35:22;-0.70;99.90
28524;DHT22;15734;50.904;6.922;2022-12-18T16:37:47;-0.70;99.90
28524;DHT22;15734;50.904;6.922;2022-12-18T16:40:14;-0.70;99.90
28524;DHT22;15734;50.904;6.922;2022-12-18T16:42:40;-0.80;99.90
28524;DHT22;15734;50.904;6.922;2022-12-18T16:45:07;-0.90;99.90
28524;DHT22;15734;50.904;6.922;2022-12-18T16:47:33;-0.80;99.90
28524;DHT22;15734;50.904;6.922;2022-12-18T16:49:58;-0.70;99.90
28524;DHT22;15734;50.904;6.922;2022-12-18T16:52:24;-0.80;99.90
28524;DHT22;15734;50.904;6.922;2022-12-18T16:54:49;-0.70;99.90
28524;DHT22;15734;50.904;6.922;2022-12-18T16:57:16;-0.80;99.90
28524;DHT22;15734;50.904;6.922;2022-12-18T16:59:42;-0.80;99.90
28524;DHT22;15734;50.904;6.922;2022-12-18T17:02:12;-0.80;99.90
28524;DHT22;15734;50.904;6.922;2022-12-18T17:04:38;-0.80;99.90
28524;DHT22;15734;50.904;6.922;2022-12-18T17:07:03;-0.80;99.90
28524;DHT22;15734;50.904;6.922;2022-12-18T17:09:29;-0.80;99.90